Main page
METAR-TAF:

METAR-TAF

Airports :

Ibiza, Spain

Ibiza Airport

latitude: 38-52N, longitude: 001-23E, elevation: 7 m

Current weather observation

The report was made 21 minutes ago, at 03:30 UTC
Wind 2 kt from the North/Northwest
Temperature 16°C
Humidity 88%
Pressure 1020 hPa
Visibility 10 km or more
no clouds below 1500 m and no cumulonimbus

METAR: LEIB 200330Z 33002KT CAVOK 16/14 Q1020 NOSIG

Time: 05:51 (03:51 UTC)

Forecast

The report was made 1 hour and 51 minutes ago, at 02:00 UTC
Forecast valid from 20 at 03 UTC to 21 at 03 UTC
Wind 4 kt from variable directions
Visibility 10 km or more
Few clouds at a height of 1500 ft
Becoming
from 20 at 09 UTC to 20 at 11 UTC
Wind 8 kt from the South/Southwest
Becoming
from 20 at 17 UTC to 20 at 19 UTC
Wind 5 kt from the South

TAF: LEIB 200200Z 2003/2103 VRB04KT 9999 FEW015 TX25/2012Z TN17/2006Z BECMG 2009/2011 21008KT BECMG 2017/2019 17005KT

Weather observations and forecasts of more than 4000 airports (METAR and TAF reports).

The available stations are represented by yellow and red dots on the map.

Hover mouse over dot to see the name of the station.

Then click to see weather observations and forecasts.

To change the map : click on the green buttons with a black cross to zoom in, on the green button with a dash to zoom out, or on the green arrows for adjacent maps.


METAR-TAF: